sensor_id;sensor_type;location;lat;lon;timestamp;pressure;altitude;pressure_sealevel;temperature
43292;BMP280;28754;47.700;7.924;2023-03-23T00:02:04;90945.13;;;14.76
43292;BMP280;28754;47.700;7.924;2023-03-23T00:04:51;90935.38;;;14.73
43292;BMP280;28754;47.700;7.924;2023-03-23T00:07:37;90930.22;;;14.73
43292;BMP280;28754;47.700;7.924;2023-03-23T00:10:24;90933.28;;;14.75
43292;BMP280;28754;47.700;7.924;2023-03-23T00:13:12;90925.53;;;14.75
43292;BMP280;28754;47.700;7.924;2023-03-23T00:15:59;90932.97;;;14.76
43292;BMP280;28754;47.700;7.924;2023-03-23T00:18:47;90931.91;;;14.77
43292;BMP280;28754;47.700;7.924;2023-03-23T00:21:37;90923.75;;;14.76
43292;BMP280;28754;47.700;7.924;2023-03-23T00:24:24;90928.59;;;14.77
43292;BMP280;28754;47.700;7.924;2023-03-23T00:27:11;90929.66;;;14.76
43292;BMP280;28754;47.700;7.924;2023-03-23T00:29:58;90923.56;;;14.72
43292;BMP280;28754;47.700;7.924;2023-03-23T00:32:45;90924.31;;;14.73
43292;BMP280;28754;47.700;7.924;2023-03-23T00:35:32;90916.84;;;14.71
43292;BMP280;28754;47.700;7.924;2023-03-23T00:38:19;90913.25;;;14.72
43292;BMP280;28754;47.700;7.924;2023-03-23T00:41:06;90916.84;;;14.71
43292;BMP280;28754;47.700;7.924;2023-03-23T00:43:54;90930.81;;;14.70
43292;BMP280;28754;47.700;7.924;2023-03-23T00:46:40;90929.75;;;14.71
43292;BMP280;28754;47.700;7.924;2023-03-23T00:49:30;90928.81;;;14.67
43292;BMP280;28754;47.700;7.924;2023-03-23T00:52:20;90926.81;;;14.64
43292;BMP280;28754;47.700;7.924;2023-03-23T00:55:07;90922.25;;;14.61
43292;BMP280;28754;47.700;7.924;2023-03-23T00:57:54;90924.56;;;14.63
43292;BMP280;28754;47.700;7.924;2023-03-23T01:00:41;90928.16;;;14.62
43292;BMP280;28754;47.700;7.924;2023-03-23T01:03:28;90929.97;;;14.61
43292;BMP280;28754;47.700;7.924;2023-03-23T01:06:19;90921.66;;;14.64
43292;BMP280;28754;47.700;7.924;2023-03-23T01:09:07;90923.47;;;14.64
43292;BMP280;28754;47.700;7.924;2023-03-23T01:11:53;90911.66;;;14.63
43292;BMP280;28754;47.700;7.924;2023-03-23T01:14:41;90924.25;;;14.64
43292;BMP280;28754;47.700;7.924;2023-03-23T01:17:29;90924.72;;;14.66
43292;BMP280;28754;47.700;7.924;2023-03-23T01:20:16;90914.41;;;14.66
43292;BMP280;28754;47.700;7.924;2023-03-23T01:23:03;90919.44;;;14.71
43292;BMP280;28754;47.700;7.924;2023-03-23T01:25:49;90913.72;;;14.74
43292;BMP280;28754;47.700;7.924;2023-03-23T01:28:37;90912.66;;;14.75
43292;BMP280;28754;47.700;7.924;2023-03-23T01:31:25;90920.28;;;14.80
43292;BMP280;28754;47.700;7.924;2023-03-23T01:34:12;90920.28;;;14.80
43292;BMP280;28754;47.700;7.924;2023-03-23T01:36:58;90912.84;;;14.78
43292;BMP280;28754;47.700;7.924;2023-03-23T01:39:45;90908.16;;;14.80
43292;BMP280;28754;47.700;7.924;2023-03-23T01:42:34;90904.81;;;14.80
43292;BMP280;28754;47.700;7.924;2023-03-23T01:45:27;90904.44;;;14.73
43292;BMP280;28754;47.700;7.924;2023-03-23T01:48:18;90903.94;;;14.63
43292;BMP280;28754;47.700;7.924;2023-03-23T01:51:09;90887.53;;;14.59
43292;BMP280;28754;47.700;7.924;2023-03-23T01:54:00;90894.94;;;14.60
43292;BMP280;28754;47.700;7.924;2023-03-23T01:56:50;90892.38;;;14.60
43292;BMP280;28754;47.700;7.924;2023-03-23T01:59:37;90879.50;;;14.60
43292;BMP280;28754;47.700;7.924;2023-03-23T02:02:47;90880.28;;;14.61
43292;BMP280;28754;47.700;7.924;2023-03-23T02:05:40;90870.72;;;14.61
43292;BMP280;28754;47.700;7.924;2023-03-23T02:08:33;90858.88;;;14.60
43292;BMP280;28754;47.700;7.924;2023-03-23T02:11:22;90868.44;;;14.60
43292;BMP280;28754;47.700;7.924;2023-03-23T02:14:09;90877.97;;;14.59
43292;BMP280;28754;47.700;7.924;2023-03-23T02:17:09;90874.34;;;14.60
43292;BMP280;28754;47.700;7.924;2023-03-23T02:20:24;90858.59;;;14.62
43292;BMP280;28754;47.700;7.924;2023-03-23T02:26:59;90863.47;;;14.63
43292;BMP280;28754;47.700;7.924;2023-03-23T02:33:06;90864.50;;;14.62
43292;BMP280;28754;47.700;7.924;2023-03-23T02:39:02;90839.69;;;14.66
43292;BMP280;28754;47.700;7.924;2023-03-23T02:41:58;90850.28;;;14.65
43292;BMP280;28754;47.700;7.924;2023-03-23T02:44:46;90844.97;;;14.61
43292;BMP280;28754;47.700;7.924;2023-03-23T02:47:35;90849.16;;;14.57
43292;BMP280;28754;47.700;7.924;2023-03-23T02:50:24;90839.16;;;14.56
43292;BMP280;28754;47.700;7.924;2023-03-23T02:53:16;90843.25;;;14.57
43292;BMP280;28754;47.700;7.924;2023-03-23T02:56:06;90844.00;;;14.57
43292;BMP280;28754;47.700;7.924;2023-03-23T02:58:55;90842.66;;;14.60
43292;BMP280;28754;47.700;7.924;2023-03-23T03:04:30;90815.56;;;14.62
43292;BMP280;28754;47.700;7.924;2023-03-23T03:10:59;90817.84;;;14.64
43292;BMP280;28754;47.700;7.924;2023-03-23T03:14:00;90815.09;;;14.60
43292;BMP280;28754;47.700;7.924;2023-03-23T03:20:21;90822.81;;;14.60
43292;BMP280;28754;47.700;7.924;2023-03-23T03:23:10;90834.66;;;14.61
43292;BMP280;28754;47.700;7.924;2023-03-23T03:26:01;90832.34;;;14.60
43292;BMP280;28754;47.700;7.924;2023-03-23T03:29:01;90828.56;;;14.57
43292;BMP280;28754;47.700;7.924;2023-03-23T03:31:49;90827.81;;;14.57
43292;BMP280;28754;47.700;7.924;2023-03-23T03:34:37;90827.06;;;14.56
43292;BMP280;28754;47.700;7.924;2023-03-23T03:37:25;90828.75;;;14.61
43292;BMP280;28754;47.700;7.924;2023-03-23T03:40:15;90828.75;;;14.61
43292;BMP280;28754;47.700;7.924;2023-03-23T03:43:03;90830.53;;;14.60
43292;BMP280;28754;47.700;7.924;2023-03-23T03:45:50;90818.44;;;14.61
43292;BMP280;28754;47.700;7.924;2023-03-23T03:48:37;90817.66;;;14.60
43292;BMP280;28754;47.700;7.924;2023-03-23T03:51:24;90824.47;;;14.56
43292;BMP280;28754;47.700;7.924;2023-03-23T03:54:13;90817.31;;;14.53
43292;BMP280;28754;47.700;7.924;2023-03-23T03:56:59;90820.38;;;14.55
43292;BMP280;28754;47.700;7.924;2023-03-23T03:59:55;90824.00;;;14.54
43292;BMP280;28754;47.700;7.924;2023-03-23T04:03:00;90826.13;;;14.52
43292;BMP280;28754;47.700;7.924;2023-03-23T04:06:10;90816.38;;;14.49
43292;BMP280;28754;47.700;7.924;2023-03-23T04:08:58;90805.91;;;14.46
43292;BMP280;28754;47.700;7.924;2023-03-23T04:11:47;90802.09;;;14.43
43292;BMP280;28754;47.700;7.924;2023-03-23T04:14:57;90810.28;;;14.45
43292;BMP280;28754;47.700;7.924;2023-03-23T04:17:50;90803.91;;;14.43
43292;BMP280;28754;47.700;7.924;2023-03-23T04:20:37;90799.06;;;14.42
43292;BMP280;28754;47.700;7.924;2023-03-23T04:23:26;90799.53;;;14.43
43292;BMP280;28754;47.700;7.924;2023-03-23T04:26:13;90802.09;;;14.43
43292;BMP280;28754;47.700;7.924;2023-03-23T04:29:06;90798.47;;;14.44
43292;BMP280;28754;47.700;7.924;2023-03-23T04:32:14;90795.63;;;14.46
43292;BMP280;28754;47.700;7.924;2023-03-23T04:35:10;90804.38;;;14.45
43292;BMP280;28754;47.700;7.924;2023-03-23T04:38:02;90804.97;;;14.42
43292;BMP280;28754;47.700;7.924;2023-03-23T04:40:49;90826.03;;;14.44
43292;BMP280;28754;47.700;7.924;2023-03-23T04:43:54;90832.06;;;14.40
43292;BMP280;28754;47.700;7.924;2023-03-23T04:46:50;90831.88;;;14.36
43292;BMP280;28754;47.700;7.924;2023-03-23T04:49:39;90834.47;;;14.36
43292;BMP280;28754;47.700;7.924;2023-03-23T04:52:34;90832.94;;;14.35
43292;BMP280;28754;47.700;7.924;2023-03-23T04:55:25;90839.91;;;14.35
43292;BMP280;28754;47.700;7.924;2023-03-23T04:58:16;90838.97;;;14.31
43292;BMP280;28754;47.700;7.924;2023-03-23T05:01:19;90842.59;;;14.30
43292;BMP280;28754;47.700;7.924;2023-03-23T05:04:16;90841.09;;;14.29
43292;BMP280;28754;47.700;7.924;2023-03-23T05:07:11;90841.09;;;14.29
43292;BMP280;28754;47.700;7.924;2023-03-23T05:10:04;90837.72;;;14.28
43292;BMP280;28754;47.700;7.924;2023-03-23T05:12:52;90838.03;;;14.27
43292;BMP280;28754;47.700;7.924;2023-03-23T05:15:39;90837.56;;;14.25
43292;BMP280;28754;47.700;7.924;2023-03-23T05:18:29;90836.91;;;14.19
43292;BMP280;28754;47.700;7.924;2023-03-23T05:21:18;90843.59;;;14.20
43292;BMP280;28754;47.700;7.924;2023-03-23T05:24:10;90842.81;;;14.20
43292;BMP280;28754;47.700;7.924;2023-03-23T05:26:57;90842.81;;;14.20
43292;BMP280;28754;47.700;7.924;2023-03-23T05:29:51;90836.16;;;14.19
43292;BMP280;28754;47.700;7.924;2023-03-23T05:32:38;90843.28;;;14.22
43292;BMP280;28754;47.700;7.924;2023-03-23T05:35:41;90845.38;;;14.20
43292;BMP280;28754;47.700;7.924;2023-03-23T05:38:28;90838.72;;;14.19
43292;BMP280;28754;47.700;7.924;2023-03-23T05:41:16;90843.38;;;14.17
43292;BMP280;28754;47.700;7.924;2023-03-23T05:44:03;90855.78;;;14.15
43292;BMP280;28754;47.700;7.924;2023-03-23T05:47:06;90855.97;;;14.18
43292;BMP280;28754;47.700;7.924;2023-03-23T05:49:54;90857.97;;;14.21
43292;BMP280;28754;47.700;7.924;2023-03-23T05:52:44;90853.09;;;14.20
43292;BMP280;28754;47.700;7.924;2023-03-23T05:55:33;90844.16;;;14.17
43292;BMP280;28754;47.700;7.924;2023-03-23T05:58:29;90867.97;;;14.23
43292;BMP280;28754;47.700;7.924;2023-03-23T06:01:16;90862.84;;;14.23
43292;BMP280;28754;47.700;7.924;2023-03-23T06:04:03;90857.69;;;14.23
43292;BMP280;28754;47.700;7.924;2023-03-23T06:07:03;90849.50;;;14.21
43292;BMP280;28754;47.700;7.924;2023-03-23T06:09:51;90863.78;;;14.27
43292;BMP280;28754;47.700;7.924;2023-03-23T06:12:43;90866.25;;;14.32
43292;BMP280;28754;47.700;7.924;2023-03-23T06:15:31;90860.50;;;14.35
43292;BMP280;28754;47.700;7.924;2023-03-23T06:18:36;90872.69;;;14.42
43292;BMP280;28754;47.700;7.924;2023-03-23T06:21:55;90877.25;;;14.45
43292;BMP280;28754;47.700;7.924;2023-03-23T06:25:00;90875.16;;;14.47
43292;BMP280;28754;47.700;7.924;2023-03-23T06:27:54;90866.03;;;14.42
43292;BMP280;28754;47.700;7.924;2023-03-23T06:30:41;90872.81;;;14.38
43292;BMP280;28754;47.700;7.924;2023-03-23T06:33:29;90868.06;;;14.31
43292;BMP280;28754;47.700;7.924;2023-03-23T06:36:24;90868.16;;;14.26
43292;BMP280;28754;47.700;7.924;2023-03-23T06:39:45;90869.50;;;14.24
43292;BMP280;28754;47.700;7.924;2023-03-23T06:42:42;90884.31;;;14.18
43292;BMP280;28754;47.700;7.924;2023-03-23T06:45:48;90880.03;;;14.14
43292;BMP280;28754;47.700;7.924;2023-03-23T06:48:55;90885.16;;;14.14
43292;BMP280;28754;47.700;7.924;2023-03-23T06:51:50;90885.66;;;14.03
43292;BMP280;28754;47.700;7.924;2023-03-23T06:54:36;90883.91;;;13.98
43292;BMP280;28754;47.700;7.924;2023-03-23T06:57:26;90879.06;;;13.97
43292;BMP280;28754;47.700;7.924;2023-03-23T07:00:13;90888.81;;;14.00
43292;BMP280;28754;47.700;7.924;2023-03-23T07:03:02;90881.56;;;14.02
43292;BMP280;28754;47.700;7.924;2023-03-23T07:05:50;90897.38;;;14.08
43292;BMP280;28754;47.700;7.924;2023-03-23T07:08:41;90903.88;;;14.06
43292;BMP280;28754;47.700;7.924;2023-03-23T07:11:33;90905.22;;;14.04
43292;BMP280;28754;47.700;7.924;2023-03-23T07:14:26;90906.56;;;14.01
43292;BMP280;28754;47.700;7.924;2023-03-23T07:17:13;90907.66;;;13.95
43292;BMP280;28754;47.700;7.924;2023-03-23T07:20:13;90914.16;;;13.93
43292;BMP280;28754;47.700;7.924;2023-03-23T07:23:02;90910.63;;;13.89
43292;BMP280;28754;47.700;7.924;2023-03-23T07:26:09;90915.56;;;13.85
43292;BMP280;28754;47.700;7.924;2023-03-23T07:28:59;90911.47;;;13.84
43292;BMP280;28754;47.700;7.924;2023-03-23T07:31:53;90911.97;;;13.86
43292;BMP280;28754;47.700;7.924;2023-03-23T07:34:41;90904.72;;;13.88
43292;BMP280;28754;47.700;7.924;2023-03-23T07:38:06;90913.41;;;13.92
43292;BMP280;28754;47.700;7.924;2023-03-23T07:40:54;90903.84;;;13.93
43292;BMP280;28754;47.700;7.924;2023-03-23T07:43:41;90919.47;;;13.96
43292;BMP280;28754;47.700;7.924;2023-03-23T07:46:31;90917.31;;;14.03
43292;BMP280;28754;47.700;7.924;2023-03-23T07:49:28;90919.69;;;14.13
43292;BMP280;28754;47.700;7.924;2023-03-23T07:52:26;90920.63;;;14.17
43292;BMP280;28754;47.700;7.924;2023-03-23T07:55:18;90908.72;;;14.21
43292;BMP280;28754;47.700;7.924;2023-03-23T07:58:13;90915.94;;;14.32
43292;BMP280;28754;47.700;7.924;2023-03-23T08:01:05;90921.03;;;14.45
43292;BMP280;28754;47.700;7.924;2023-03-23T08:03:56;90917.31;;;14.51
43292;BMP280;28754;47.700;7.924;2023-03-23T08:07:05;90917.91;;;14.48
43292;BMP280;28754;47.700;7.924;2023-03-23T08:10:03;90929.84;;;14.44
43292;BMP280;28754;47.700;7.924;2023-03-23T08:13:11;90928.97;;;14.49
43292;BMP280;28754;47.700;7.924;2023-03-23T08:16:04;90908.75;;;14.42
43292;BMP280;28754;47.700;7.924;2023-03-23T08:19:02;90934.31;;;14.39
43292;BMP280;28754;47.700;7.924;2023-03-23T08:22:01;90927.25;;;14.44
43292;BMP280;28754;47.700;7.924;2023-03-23T08:25:17;90933.84;;;14.50
43292;BMP280;28754;47.700;7.924;2023-03-23T08:28:20;90955.63;;;14.66
43292;BMP280;28754;47.700;7.924;2023-03-23T08:31:25;90943.47;;;14.80
43292;BMP280;28754;47.700;7.924;2023-03-23T08:34:34;90950.81;;;14.86
43292;BMP280;28754;47.700;7.924;2023-03-23T08:37:43;90951.78;;;14.77
43292;BMP280;28754;47.700;7.924;2023-03-23T08:41:03;90964.81;;;14.59
43292;BMP280;28754;47.700;7.924;2023-03-23T08:44:16;90960.47;;;14.46
43292;BMP280;28754;47.700;7.924;2023-03-23T08:47:14;90966.19;;;14.43
43292;BMP280;28754;47.700;7.924;2023-03-23T08:50:27;90976.78;;;14.42
43292;BMP280;28754;47.700;7.924;2023-03-23T08:53:33;90988.00;;;14.45
43292;BMP280;28754;47.700;7.924;2023-03-23T08:56:43;90982.78;;;14.50
43292;BMP280;28754;47.700;7.924;2023-03-23T08:59:50;90983.13;;;14.57
43292;BMP280;28754;47.700;7.924;2023-03-23T09:03:00;90961.34;;;14.76
43292;BMP280;28754;47.700;7.924;2023-03-23T09:06:01;90976.03;;;15.11
43292;BMP280;28754;47.700;7.924;2023-03-23T09:08:56;90974.63;;;15.27
43292;BMP280;28754;47.700;7.924;2023-03-23T09:11:43;90966.59;;;15.28
43292;BMP280;28754;47.700;7.924;2023-03-23T09:14:29;90980.31;;;15.15
43292;BMP280;28754;47.700;7.924;2023-03-23T09:17:16;90976.19;;;14.93
43292;BMP280;28754;47.700;7.924;2023-03-23T09:20:04;90977.94;;;14.71
43292;BMP280;28754;47.700;7.924;2023-03-23T09:22:57;90985.13;;;14.60
43292;BMP280;28754;47.700;7.924;2023-03-23T09:25:44;90975.88;;;14.59
43292;BMP280;28754;47.700;7.924;2023-03-23T09:28:30;90981.69;;;14.65
43292;BMP280;28754;47.700;7.924;2023-03-23T09:31:17;90984.66;;;14.72
43292;BMP280;28754;47.700;7.924;2023-03-23T09:34:07;90980.72;;;14.74
43292;BMP280;28754;47.700;7.924;2023-03-23T09:36:55;90977.56;;;14.77
43292;BMP280;28754;47.700;7.924;2023-03-23T09:39:42;90990.91;;;14.79
43292;BMP280;28754;47.700;7.924;2023-03-23T09:45:43;90993.84;;;14.86
43292;BMP280;28754;47.700;7.924;2023-03-23T09:48:38;90993.44;;;14.92
43292;BMP280;28754;47.700;7.924;2023-03-23T09:54:30;90986.84;;;15.00
43292;BMP280;28754;47.700;7.924;2023-03-23T10:03:23;90989.31;;;15.05
43292;BMP280;28754;47.700;7.924;2023-03-23T10:06:16;90996.91;;;15.09
43292;BMP280;28754;47.700;7.924;2023-03-23T10:09:08;90994.19;;;15.06
43292;BMP280;28754;47.700;7.924;2023-03-23T10:12:12;90989.31;;;15.05
43292;BMP280;28754;47.700;7.924;2023-03-23T10:18:22;90994.47;;;15.05
43292;BMP280;28754;47.700;7.924;2023-03-23T10:21:14;90999.50;;;15.09
43292;BMP280;28754;47.700;7.924;2023-03-23T10:24:07;91000.78;;;15.12
43292;BMP280;28754;47.700;7.924;2023-03-23T10:27:13;90999.06;;;15.08
43292;BMP280;28754;47.700;7.924;2023-03-23T10:33:38;90999.34;;;15.06
43292;BMP280;28754;47.700;7.924;2023-03-23T10:36:33;90993.31;;;15.10
43292;BMP280;28754;47.700;7.924;2023-03-23T10:39:22;90994.75;;;15.16
43292;BMP280;28754;47.700;7.924;2023-03-23T10:42:10;90981.25;;;15.19
43292;BMP280;28754;47.700;7.924;2023-03-23T10:44:59;90996.13;;;15.22
43292;BMP280;28754;47.700;7.924;2023-03-23T10:47:51;90997.72;;;15.32
43292;BMP280;28754;47.700;7.924;2023-03-23T10:50:38;90994.44;;;15.40
43292;BMP280;28754;47.700;7.924;2023-03-23T10:53:37;90989.94;;;15.45
43292;BMP280;28754;47.700;7.924;2023-03-23T10:56:35;90992.09;;;15.51
43292;BMP280;28754;47.700;7.924;2023-03-23T10:59:28;90999.41;;;15.58
43292;BMP280;28754;47.700;7.924;2023-03-23T11:02:18;90991.38;;;15.59
43292;BMP280;28754;47.700;7.924;2023-03-23T11:05:23;90990.44;;;15.55
43292;BMP280;28754;47.700;7.924;2023-03-23T11:08:16;91007.84;;;15.50
43292;BMP280;28754;47.700;7.924;2023-03-23T11:11:24;91005.81;;;15.39
43292;BMP280;28754;47.700;7.924;2023-03-23T11:14:17;90995.78;;;15.37
43292;BMP280;28754;47.700;7.924;2023-03-23T11:17:27;90999.19;;;15.46
43292;BMP280;28754;47.700;7.924;2023-03-23T11:20:19;90983.94;;;15.58
43292;BMP280;28754;47.700;7.924;2023-03-23T11:23:16;90987.91;;;15.64
43292;BMP280;28754;47.700;7.924;2023-03-23T11:26:19;90983.69;;;15.68
43292;BMP280;28754;47.700;7.924;2023-03-23T11:29:22;90992.81;;;15.74
43292;BMP280;28754;47.700;7.924;2023-03-23T11:32:11;90983.84;;;15.71
43292;BMP280;28754;47.700;7.924;2023-03-23T11:35:00;90996.28;;;15.69
43292;BMP280;28754;47.700;7.924;2023-03-23T11:37:55;90989.19;;;15.75
43292;BMP280;28754;47.700;7.924;2023-03-23T11:40:47;90998.91;;;15.78
43292;BMP280;28754;47.700;7.924;2023-03-23T11:43:34;90992.41;;;15.80
43292;BMP280;28754;47.700;7.924;2023-03-23T11:46:34;90989.94;;;15.75
43292;BMP280;28754;47.700;7.924;2023-03-23T11:52:33;90988.06;;;15.67
43292;BMP280;28754;47.700;7.924;2023-03-23T11:55:27;90991.44;;;15.68
43292;BMP280;28754;47.700;7.924;2023-03-23T11:58:18;90989.63;;;15.68
43292;BMP280;28754;47.700;7.924;2023-03-23T12:23:28;90983.56;;;15.73
43292;BMP280;28754;47.700;7.924;2023-03-23T12:41:24;90969.13;;;15.72
43292;BMP280;28754;47.700;7.924;2023-03-23T12:44:14;90967.47;;;15.76
43292;BMP280;28754;47.700;7.924;2023-03-23T12:50:40;90972.47;;;15.72
43292;BMP280;28754;47.700;7.924;2023-03-23T12:53:37;90962.25;;;15.67
43292;BMP280;28754;47.700;7.924;2023-03-23T12:56:34;90958.78;;;15.63
43292;BMP280;28754;47.700;7.924;2023-03-23T13:02:34;90964.47;;;15.52
43292;BMP280;28754;47.700;7.924;2023-03-23T13:08:19;90958.97;;;15.45
43292;BMP280;28754;47.700;7.924;2023-03-23T13:11:19;90966.84;;;15.40
43292;BMP280;28754;47.700;7.924;2023-03-23T13:15:06;90956.81;;;15.39
43292;BMP280;28754;47.700;7.924;2023-03-23T13:23:40;90960.56;;;15.33
43292;BMP280;28754;47.700;7.924;2023-03-23T13:26:28;90959.50;;;15.34
43292;BMP280;28754;47.700;7.924;2023-03-23T13:29:18;90954.44;;;15.29
43292;BMP280;28754;47.700;7.924;2023-03-23T13:32:11;90955.72;;;15.31
43292;BMP280;28754;47.700;7.924;2023-03-23T13:35:02;90944.31;;;15.32
43292;BMP280;28754;47.700;7.924;2023-03-23T13:37:55;90951.00;;;15.33
43292;BMP280;28754;47.700;7.924;2023-03-23T13:40:43;90943.72;;;15.35
43292;BMP280;28754;47.700;7.924;2023-03-23T13:43:32;90954.03;;;15.35
43292;BMP280;28754;47.700;7.924;2023-03-23T13:54:47;90956.22;;;15.20
43292;BMP280;28754;47.700;7.924;2023-03-23T13:57:50;90948.44;;;15.11
43292;BMP280;28754;47.700;7.924;2023-03-23T14:06:20;90949.06;;;14.95
43292;BMP280;28754;47.700;7.924;2023-03-23T14:09:33;90949.69;;;15.01
43292;BMP280;28754;47.700;7.924;2023-03-23T14:12:25;90938.03;;;15.03
43292;BMP280;28754;47.700;7.924;2023-03-23T14:15:14;90946.06;;;15.02
43292;BMP280;28754;47.700;7.924;2023-03-23T14:18:03;90944.06;;;14.99
43292;BMP280;28754;47.700;7.924;2023-03-23T14:20:50;90943.78;;;15.00
43292;BMP280;28754;47.700;7.924;2023-03-23T14:23:37;90944.84;;;14.99
43292;BMP280;28754;47.700;7.924;2023-03-23T14:26:23;90942.97;;;14.91
43292;BMP280;28754;47.700;7.924;2023-03-23T14:29:11;90955.78;;;14.83
43292;BMP280;28754;47.700;7.924;2023-03-23T14:31:59;90957.59;;;14.82
43292;BMP280;28754;47.700;7.924;2023-03-23T14:34:47;90947.69;;;14.76
43292;BMP280;28754;47.700;7.924;2023-03-23T14:37:35;90945.88;;;14.76
43292;BMP280;28754;47.700;7.924;2023-03-23T14:40:22;90943.75;;;14.78
43292;BMP280;28754;47.700;7.924;2023-03-23T14:43:10;90943.16;;;14.81
43292;BMP280;28754;47.700;7.924;2023-03-23T14:46:02;90948.03;;;14.83
43292;BMP280;28754;47.700;7.924;2023-03-23T14:48:50;90943.38;;;14.85
43292;BMP280;28754;47.700;7.924;2023-03-23T14:51:37;90927.44;;;14.83
43292;BMP280;28754;47.700;7.924;2023-03-23T14:54:27;90925.31;;;14.85
43292;BMP280;28754;47.700;7.924;2023-03-23T15:00:12;90916.91;;;14.93
43292;BMP280;28754;47.700;7.924;2023-03-23T15:03:03;90916.16;;;15.01
43292;BMP280;28754;47.700;7.924;2023-03-23T15:05:56;90906.97;;;15.08
43292;BMP280;28754;47.700;7.924;2023-03-23T15:08:45;90899.44;;;15.11
43292;BMP280;28754;47.700;7.924;2023-03-23T15:11:35;90907.63;;;15.13
43292;BMP280;28754;47.700;7.924;2023-03-23T15:14:26;90902.00;;;15.11
43292;BMP280;28754;47.700;7.924;2023-03-23T15:17:22;90904.09;;;15.09
43292;BMP280;28754;47.700;7.924;2023-03-23T15:20:47;90899.91;;;15.13
43292;BMP280;28754;47.700;7.924;2023-03-23T15:23:26;90907.16;;;15.11
43292;BMP280;28754;47.700;7.924;2023-03-23T15:26:24;90907.47;;;15.10
43292;BMP280;28754;47.700;7.924;2023-03-23T15:29:15;90906.13;;;15.12
43292;BMP280;28754;47.700;7.924;2023-03-23T15:32:02;90897.03;;;15.15
43292;BMP280;28754;47.700;7.924;2023-03-23T15:34:50;90905.06;;;15.13
43292;BMP280;28754;47.700;7.924;2023-03-23T15:37:42;90893.03;;;15.09
43292;BMP280;28754;47.700;7.924;2023-03-23T15:40:36;90900.75;;;15.09
43292;BMP280;28754;47.700;7.924;2023-03-23T15:43:31;90916.06;;;15.06
43292;BMP280;28754;47.700;7.924;2023-03-23T15:46:23;90901.34;;;15.06
43292;BMP280;28754;47.700;7.924;2023-03-23T15:49:11;90906.22;;;15.08
43292;BMP280;28754;47.700;7.924;2023-03-23T15:51:59;90899.06;;;15.05
43292;BMP280;28754;47.700;7.924;2023-03-23T15:54:47;90900.59;;;15.06
43292;BMP280;28754;47.700;7.924;2023-03-23T15:57:34;90890.09;;;15.02
43292;BMP280;28754;47.700;7.924;2023-03-23T16:00:23;90898.59;;;15.03
43292;BMP280;28754;47.700;7.924;2023-03-23T16:03:18;90886.03;;;15.01
43292;BMP280;28754;47.700;7.924;2023-03-23T16:06:10;90889.63;;;15.00
43292;BMP280;28754;47.700;7.924;2023-03-23T16:08:57;90882.19;;;14.99
43292;BMP280;28754;47.700;7.924;2023-03-23T16:11:43;90887.34;;;14.99
43292;BMP280;28754;47.700;7.924;2023-03-23T16:14:30;90889.00;;;14.95
43292;BMP280;28754;47.700;7.924;2023-03-23T16:17:18;90892.56;;;14.85
43292;BMP280;28754;47.700;7.924;2023-03-23T16:20:20;90895.41;;;14.76
43292;BMP280;28754;47.700;7.924;2023-03-23T16:23:07;90896.25;;;14.71
43292;BMP280;28754;47.700;7.924;2023-03-23T16:25:54;90901.81;;;14.65
43292;BMP280;28754;47.700;7.924;2023-03-23T16:28:45;90902.81;;;14.55
43292;BMP280;28754;47.700;7.924;2023-03-23T16:31:32;90898.06;;;14.49
43292;BMP280;28754;47.700;7.924;2023-03-23T16:34:18;90902.16;;;14.50
43292;BMP280;28754;47.700;7.924;2023-03-23T16:37:05;90907.00;;;14.51
43292;BMP280;28754;47.700;7.924;2023-03-23T16:39:52;90904.34;;;14.56
43292;BMP280;28754;47.700;7.924;2023-03-23T16:42:39;90904.16;;;14.53
43292;BMP280;28754;47.700;7.924;2023-03-23T16:45:26;90902.44;;;14.48
43292;BMP280;28754;47.700;7.924;2023-03-23T16:48:14;90904.44;;;14.51
43292;BMP280;28754;47.700;7.924;2023-03-23T16:51:01;90903.38;;;14.52
43292;BMP280;28754;47.700;7.924;2023-03-23T16:53:47;90905.25;;;14.60
43292;BMP280;28754;47.700;7.924;2023-03-23T16:56:34;90907.84;;;14.60
43292;BMP280;28754;47.700;7.924;2023-03-23T16:59:21;90906.78;;;14.61
43292;BMP280;28754;47.700;7.924;2023-03-23T17:02:11;90911.34;;;14.64
43292;BMP280;28754;47.700;7.924;2023-03-23T17:05:15;90919.00;;;14.69
43292;BMP280;28754;47.700;7.924;2023-03-23T17:08:03;90902.28;;;14.67
43292;BMP280;28754;47.700;7.924;2023-03-23T17:10:50;90916.84;;;14.71
43292;BMP280;28754;47.700;7.924;2023-03-23T17:13:39;90903.97;;;14.71
43292;BMP280;28754;47.700;7.924;2023-03-23T17:16:25;90908.69;;;14.69
43292;BMP280;28754;47.700;7.924;2023-03-23T17:19:12;90910.59;;;14.64
43292;BMP280;28754;47.700;7.924;2023-03-23T17:22:02;90905.91;;;14.66
43292;BMP280;28754;47.700;7.924;2023-03-23T17:24:48;90908.63;;;14.61
43292;BMP280;28754;47.700;7.924;2023-03-23T17:27:35;90906.31;;;14.59
43292;BMP280;28754;47.700;7.924;2023-03-23T17:30:22;90898.13;;;14.57
43292;BMP280;28754;47.700;7.924;2023-03-23T17:33:10;90898.41;;;14.56
43292;BMP280;28754;47.700;7.924;2023-03-23T17:35:57;90895.53;;;14.57
43292;BMP280;28754;47.700;7.924;2023-03-23T17:38:44;90888.56;;;14.58
43292;BMP280;28754;47.700;7.924;2023-03-23T17:41:30;90891.91;;;14.58
43292;BMP280;28754;47.700;7.924;2023-03-23T17:44:17;90892.50;;;14.55
43292;BMP280;28754;47.700;7.924;2023-03-23T17:47:04;90892.50;;;14.55
43292;BMP280;28754;47.700;7.924;2023-03-23T17:49:51;90894.59;;;14.53
43292;BMP280;28754;47.700;7.924;2023-03-23T17:52:37;90894.59;;;14.53
43292;BMP280;28754;47.700;7.924;2023-03-23T17:55:24;90900.81;;;14.52
43292;BMP280;28754;47.700;7.924;2023-03-23T17:58:10;90907.47;;;14.53
43292;BMP280;28754;47.700;7.924;2023-03-23T18:00:57;90909.59;;;14.51
43292;BMP280;28754;47.700;7.924;2023-03-23T18:03:44;90903.19;;;14.49
43292;BMP280;28754;47.700;7.924;2023-03-23T18:06:36;90900.44;;;14.45
43292;BMP280;28754;47.700;7.924;2023-03-23T18:09:23;90890.44;;;14.44
43292;BMP280;28754;47.700;7.924;2023-03-23T18:12:10;90896.63;;;14.43
43292;BMP280;28754;47.700;7.924;2023-03-23T18:14:57;90906.19;;;14.42
43292;BMP280;28754;47.700;7.924;2023-03-23T18:17:44;90902.66;;;14.39
43292;BMP280;28754;47.700;7.924;2023-03-23T18:20:33;90894.44;;;14.37
43292;BMP280;28754;47.700;7.924;2023-03-23T18:24:00;90905.81;;;14.36
43292;BMP280;28754;47.700;7.924;2023-03-23T18:27:25;90897.16;;;14.32